Time;durP1;ratioP1;P1;durP2;ratioP2;P2;SDS_P1;SDS_P2;PMS_P1;PMS_P2;Temp;Humidity;BMP_temperature;BMP_pressure;BME280_temperature;BME280_humidity;BME280_pressure;Samples;Min_cycle;Max_cycle;Signal;HPM_P1;HPM_P2
2022/04/21 00:00:29;;;;;;;0.60;0.10;;;10.80;99.90;;;;;;5063070;28;20443;-81
2022/04/21 00:02:58;;;;;;;0.60;0.10;;;;;;;;;;5063931;28;20481;-82
2022/04/21 00:05:26;;;;;;;0.70;0.40;;;;;;;;;;5065784;28;20451;-83
2022/04/21 00:07:54;;;;;;;0.60;0.10;;;10.70;99.90;;;;;;5068047;28;20831;-81
2022/04/21 00:10:25;;;;;;;0.60;0.10;;;10.60;99.90;;;;;;5062854;28;20446;-81
2022/04/21 00:12:54;;;;;;;0.60;0.10;;;10.60;99.90;;;;;;5073082;28;20468;-82
2022/04/21 00:15:23;;;;;;;0.60;0.10;;;10.60;99.90;;;;;;5084804;28;20495;-81
2022/04/21 00:17:51;;;;;;;0.60;0.10;;;10.60;99.90;;;;;;5082794;28;20573;-81
2022/04/21 00:20:20;;;;;;;0.60;0.10;;;10.60;99.90;;;;;;5084616;28;20483;-81
2022/04/21 00:25:34;;;;;;;0.93;0.40;;;10.60;99.90;;;;;;5090340;28;20508;-82
2022/04/21 00:28:03;;;;;;;0.60;0.20;;;;;;;;;;5088861;28;20484;-82
2022/04/21 00:30:31;;;;;;;0.60;0.10;;;10.50;99.90;;;;;;5085130;28;20510;-83
2022/04/21 00:32:59;;;;;;;0.60;0.20;;;10.40;99.90;;;;;;5085295;28;20446;-82
2022/04/21 00:35:27;;;;;;;0.60;0.10;;;10.40;99.90;;;;;;5088253;28;20508;-82
2022/04/21 00:37:57;;;;;;;0.70;0.30;;;10.40;99.90;;;;;;5091263;28;20474;-82
2022/04/21 00:40:27;;;;;;;0.83;0.83;;;10.30;99.90;;;;;;5087788;28;20505;-82
2022/04/21 00:42:58;;;;;;;0.70;0.67;;;10.30;99.90;;;;;;5082332;28;20457;-82
2022/04/21 00:45:27;;;;;;;0.60;0.10;;;10.30;99.90;;;;;;5081126;28;20544;-82
2022/04/21 00:47:57;;;;;;;0.60;0.10;;;10.30;99.90;;;;;;5081331;28;20672;-83
2022/04/21 00:50:28;;;;;;;2.67;2.47;;;10.20;99.90;;;;;;5084846;28;20553;-82
2022/04/21 00:52:57;;;;;;;0.80;0.40;;;10.20;99.90;;;;;;5081359;28;20442;-81
2022/04/21 00:55:26;;;;;;;0.90;0.20;;;10.20;99.90;;;;;;5079374;28;20539;-84
2022/04/21 00:57:57;;;;;;;0.60;0.10;;;10.20;99.90;;;;;;5077930;28;20997;-82
2022/04/21 01:00:25;;;;;;;0.70;0.50;;;10.10;99.90;;;;;;5078994;28;20544;-82
2022/04/21 01:02:52;;;;;;;0.60;0.10;;;10.10;99.90;;;;;;5089896;28;20512;-81
2022/04/21 01:05:33;;;;;;;0.60;0.23;;;10.10;99.90;;;;;;5096408;28;20437;-80
2022/04/21 01:08:02;;;;;;;0.60;0.10;;;10.10;99.90;;;;;;5086018;28;20465;-80
2022/04/21 01:10:33;;;;;;;0.60;0.10;;;10.10;99.90;;;;;;5083459;28;20476;-81
2022/04/21 01:13:06;;;;;;;0.77;0.70;;;10.10;99.90;;;;;;5077705;28;20757;-83
2022/04/21 01:15:35;;;;;;;0.60;0.10;;;10.00;99.90;;;;;;5077163;28;20469;-81
2022/04/21 01:18:04;;;;;;;1.00;0.40;;;10.00;99.90;;;;;;5074893;28;20472;-81
2022/04/21 01:20:34;;;;;;;2.03;1.07;;;10.00;99.90;;;;;;5077272;28;20564;-82
2022/04/21 01:23:02;;;;;;;0.60;0.10;;;10.00;99.90;;;;;;5085486;28;20499;-81
2022/04/21 01:25:38;;;;;;;0.70;0.30;;;10.00;99.90;;;;;;5077665;28;20446;-81
2022/04/21 01:28:08;;;;;;;0.60;0.10;;;10.00;99.90;;;;;;5078379;28;20457;-83
2022/04/21 01:30:36;;;;;;;0.60;0.10;;;9.90;99.90;;;;;;5077822;28;20784;-85
2022/04/21 01:33:04;;;;;;;0.60;0.10;;;9.90;99.90;;;;;;5076813;28;20449;-82
2022/04/21 01:35:33;;;;;;;0.60;0.10;;;;;;;;;;5078962;28;20488;-82
2022/04/21 01:43:33;;;;;;;0.60;0.10;;;9.90;99.90;;;;;;5083181;28;20433;-83
2022/04/21 01:46:01;;;;;;;0.60;0.17;;;;;;;;;;5080767;28;20525;-82
2022/04/21 01:48:29;;;;;;;0.60;0.10;;;9.90;99.90;;;;;;5081877;28;20466;-82
2022/04/21 01:50:58;;;;;;;0.60;0.30;;;9.90;99.90;;;;;;5081551;28;20456;-82
2022/04/21 01:53:26;;;;;;;0.60;0.10;;;9.90;99.90;;;;;;5085340;28;20465;-82
2022/04/21 01:55:54;;;;;;;0.60;0.10;;;9.90;99.90;;;;;;5094844;28;20500;-82
2022/04/21 01:58:22;;;;;;;0.60;0.10;;;9.90;99.90;;;;;;5094897;28;20484;-82
2022/04/21 02:00:50;;;;;;;0.60;0.10;;;9.90;99.90;;;;;;5095187;28;20430;-82
2022/04/21 02:03:19;;;;;;;0.60;0.27;;;9.90;99.90;;;;;;5095610;28;20434;-80
2022/04/21 02:05:46;;;;;;;0.60;0.10;;;9.90;99.90;;;;;;5095002;28;20456;-81
2022/04/21 02:08:16;;;;;;;0.60;0.10;;;9.90;99.90;;;;;;5091665;28;20508;-83
2022/04/21 02:10:44;;;;;;;0.60;0.10;;;11.30;99.90;;;;;;5093405;28;20552;-82
2022/04/21 02:13:12;;;;;;;0.60;0.10;;;9.90;99.90;;;;;;5099185;28;20526;-80
2022/04/21 02:15:40;;;;;;;0.60;0.10;;;9.90;99.90;;;;;;5094542;28;20504;-82
2022/04/21 02:18:08;;;;;;;0.60;0.10;;;9.90;99.90;;;;;;5095195;28;20445;-81
2022/04/21 02:20:36;;;;;;;0.60;0.10;;;9.90;99.90;;;;;;5090634;28;20457;-83
2022/04/21 02:23:04;;;;;;;0.60;0.10;;;9.90;99.90;;;;;;5084479;28;20453;-82
2022/04/21 02:25:33;;;;;;;2.73;2.63;;;10.00;99.90;;;;;;5084611;28;20437;-83
2022/04/21 02:28:01;;;;;;;0.60;0.10;;;10.00;99.90;;;;;;5081517;28;20543;-80
2022/04/21 02:30:29;;;;;;;0.60;0.10;;;10.00;99.90;;;;;;5085848;28;20468;-82
2022/04/21 02:32:57;;;;;;;0.60;0.10;;;10.10;99.90;;;;;;5090469;28;20469;-82
2022/04/21 02:35:26;;;;;;;0.60;0.10;;;10.10;99.90;;;;;;5087129;28;20466;-82
2022/04/21 02:37:54;;;;;;;0.60;0.10;;;10.10;99.90;;;;;;5080286;28;21051;-81
2022/04/21 02:40:21;;;;;;;0.60;0.10;;;10.10;99.90;;;;;;5078720;28;20448;-82
2022/04/21 02:42:51;;;;;;;0.60;0.10;;;10.10;99.90;;;;;;5078269;28;20478;-83
2022/04/21 02:45:19;;;;;;;0.60;0.10;;;;;;;;;;5077695;28;20437;-82
2022/04/21 02:47:49;;;;;;;0.60;0.10;;;10.00;99.90;;;;;;5077088;28;20473;-82
2022/04/21 02:50:18;;;;;;;0.60;0.10;;;10.00;99.90;;;;;;5076488;28;20445;-82
2022/04/21 02:52:47;;;;;;;0.60;0.10;;;10.00;99.90;;;;;;5077668;28;20547;-81
2022/04/21 02:58:19;;;;;;;0.60;0.10;;;9.90;99.90;;;;;;5018932;28;20479;-83
2022/04/21 03:00:48;;;;;;;0.60;0.10;;;9.90;99.90;;;;;;5017971;28;20605;-84
2022/04/21 03:03:16;;;;;;;0.60;0.10;;;9.80;99.90;;;;;;5047578;28;20449;-83
2022/04/21 03:05:44;;;;;;;0.60;0.10;;;9.80;99.90;;;;;;5082195;28;20464;-81
2022/04/21 03:08:12;;;;;;;0.60;0.10;;;9.80;99.90;;;;;;5081968;28;20536;-84
2022/04/21 03:10:40;;;;;;;0.60;0.10;;;9.80;99.90;;;;;;5082523;28;20451;-83
2022/04/21 03:13:08;;;;;;;0.60;0.10;;;9.70;99.90;;;;;;5082104;28;20472;-81
2022/04/21 03:15:38;;;;;;;0.60;0.10;;;;;;;;;;5079764;28;20527;-83
2022/04/21 03:18:07;;;;;;;0.60;0.10;;;9.70;99.90;;;;;;5080381;28;20545;-81
2022/04/21 03:26:06;;;;;;;0.60;0.10;;;9.50;1.00;;;;;;5078746;28;20476;-83
2022/04/21 03:28:34;;;;;;;0.60;0.10;;;9.50;1.00;;;;;;5090314;28;20481;-82
2022/04/21 03:31:03;;;;;;;0.60;0.20;;;9.50;1.00;;;;;;5099539;28;20436;-81
2022/04/21 03:33:31;;;;;;;0.60;0.10;;;9.40;1.00;;;;;;5088784;28;20525;-83
2022/04/21 03:35:59;;;;;;;0.60;0.10;;;9.40;1.00;;;;;;5083266;28;20483;-82
2022/04/21 03:38:27;;;;;;;0.60;0.10;;;9.40;1.00;;;;;;5086207;28;20492;-83
2022/04/21 03:40:56;;;;;;;0.60;0.20;;;9.40;1.00;;;;;;5090576;28;20529;-82
2022/04/21 03:43:24;;;;;;;0.60;0.20;;;;;;;;;;5098540;28;20508;-83
2022/04/21 03:45:52;;;;;;;8.17;2.43;;;9.40;1.00;;;;;;5094192;28;20464;-84
2022/04/21 03:48:22;;;;;;;0.70;0.40;;;9.30;1.00;;;;;;5085524;28;20466;-83
2022/04/21 03:50:49;;;;;;;1.23;0.80;;;9.30;1.00;;;;;;5085880;28;20763;-83
2022/04/21 03:53:18;;;;;;;0.60;0.10;;;;;;;;;;5085398;28;20517;-83
2022/04/21 03:55:47;;;;;;;0.63;0.27;;;9.30;1.00;;;;;;5083868;28;21032;-83
2022/04/21 03:58:15;;;;;;;2.43;2.23;;;9.40;1.00;;;;;;5082939;28;20969;-84
2022/04/21 04:00:43;;;;;;;9.17;8.73;;;9.40;1.00;;;;;;5083011;28;20460;-84
2022/04/21 04:03:11;;;;;;;0.60;0.10;;;9.40;1.00;;;;;;5094117;28;20438;-83
2022/04/21 04:05:41;;;;;;;0.60;0.10;;;;;;;;;;5097270;28;20437;-84
2022/04/21 04:10:54;;;;;;;0.60;0.10;;;10.10;1.00;;;;;;5085955;28;20518;-83
2022/04/21 04:13:24;;;;;;;0.60;0.10;;;9.50;1.00;;;;;;5095673;28;20453;-82
2022/04/21 04:15:53;;;;;;;0.60;0.10;;;9.50;1.00;;;;;;5091858;28;20987;-83
2022/04/21 04:18:22;;;;;;;0.60;0.10;;;9.50;1.00;;;;;;5087823;28;20563;-83
2022/04/21 04:20:52;;;;;;;0.60;0.20;;;;;;;;;;5087693;28;20465;-84
2022/04/21 04:23:21;;;;;;;0.60;0.20;;;9.50;1.00;;;;;;5096953;28;20620;-80
2022/04/21 04:25:50;;;;;;;0.60;0.10;;;;;;;;;;5096450;28;20534;-81
2022/04/21 04:28:18;;;;;;;0.60;0.20;;;9.50;1.00;;;;;;5086109;28;20452;-82
2022/04/21 04:30:46;;;;;;;0.60;0.10;;;9.40;1.00;;;;;;5083344;28;20438;-82
2022/04/21 04:33:15;;;;;;;0.60;0.20;;;;;;;;;;5084562;28;20505;-82
2022/04/21 04:35:43;;;;;;;0.60;0.20;;;9.40;1.00;;;;;;5084458;28;20507;-83
2022/04/21 04:38:14;;;;;;;1.47;0.93;;;9.40;1.00;;;;;;5085605;28;20902;-83
2022/04/21 04:40:42;;;;;;;0.60;0.10;;;9.40;1.00;;;;;;5085691;28;20942;-83
2022/04/21 04:43:09;;;;;;;0.60;0.10;;;9.40;1.00;;;;;;5067105;28;20947;-83
2022/04/21 04:48:22;;;;;;;0.60;0.10;;;9.40;1.00;;;;;;5094513;28;20524;-83
2022/04/21 04:50:50;;;;;;;0.60;0.10;;;9.40;1.00;;;;;;5093392;28;20459;-83
2022/04/21 04:53:20;;;;;;;0.60;0.10;;;;;;;;;;5089360;28;20460;-83
2022/04/21 04:55:48;;;;;;;0.60;0.10;;;9.40;1.00;;;;;;5081168;28;20446;-83
2022/04/21 04:58:16;;;;;;;0.60;0.10;;;9.40;1.00;;;;;;5075176;28;20482;-82
2022/04/21 05:00:47;;;;;;;0.60;0.10;;;9.40;1.00;;;;;;5074371;28;20889;-82
2022/04/21 05:03:18;;;;;;;0.60;0.10;;;9.40;1.00;;;;;;5079811;28;20457;-82
2022/04/21 05:05:46;;;;;;;0.60;0.10;;;9.40;1.00;;;;;;5093996;28;20473;-83
2022/04/21 05:08:14;;;;;;;0.60;0.10;;;9.40;1.00;;;;;;5090983;28;20483;-83
2022/04/21 05:10:43;;;;;;;0.60;0.10;;;9.40;1.00;;;;;;5088625;28;20508;-83
2022/04/21 05:13:11;;;;;;;0.60;0.10;;;9.40;1.00;;;;;;5088921;28;20456;-82
2022/04/21 05:15:39;;;;;;;0.73;0.40;;;9.40;1.00;;;;;;5102886;28;20433;-83
2022/04/21 05:18:08;;;;;;;0.80;0.57;;;9.30;1.00;;;;;;5106846;28;20491;-83
2022/04/21 05:20:37;;;;;;;0.80;0.30;;;9.30;1.00;;;;;;5105167;28;20445;-83
2022/04/21 05:23:07;;;;;;;0.83;0.73;;;9.30;1.00;;;;;;5096678;28;20439;-83
2022/04/21 05:25:37;;;;;;;0.60;0.20;;;;;;;;;;5091911;28;21142;-82
2022/04/21 05:28:09;;;;;;;0.60;0.30;;;;;;;;;;5085310;28;20522;-84
2022/04/21 05:30:58;;;;;;;0.60;0.10;;;9.30;1.00;;;;;;5086605;28;20484;-83
2022/04/21 05:33:28;;;;;;;0.60;0.27;;;9.30;1.00;;;;;;5083503;28;20868;-82
2022/04/21 05:36:00;;;;;;;0.70;0.50;;;9.30;1.00;;;;;;5084269;28;20498;-83
2022/04/21 05:38:29;;;;;;;0.70;0.30;;;9.40;1.00;;;;;;5083507;28;20488;-83
2022/04/21 05:40:58;;;;;;;0.90;0.27;;;9.40;1.00;;;;;;5082556;28;20540;-83
2022/04/21 05:43:31;;;;;;;0.60;0.13;;;9.50;1.00;;;;;;5083463;28;20496;-83
2022/04/21 05:45:59;;;;;;;0.60;0.20;;;9.50;1.00;;;;;;5082783;28;20445;-83
2022/04/21 05:48:28;;;;;;;0.60;0.20;;;9.60;1.00;;;;;;5083321;28;20456;-82
2022/04/21 05:50:59;;;;;;;0.93;0.93;;;9.60;1.00;;;;;;5084344;28;20444;-82
2022/04/21 05:53:28;;;;;;;0.60;0.10;;;9.70;1.00;;;;;;5081035;28;20429;-80
2022/04/21 05:55:57;;;;;;;0.60;0.10;;;;;;;;;;5094072;28;20445;-83
2022/04/21 05:58:27;;;;;;;0.60;0.10;;;9.90;1.00;;;;;;5091904;28;20492;-81
2022/04/21 06:00:55;;;;;;;0.60;0.20;;;;;;;;;;5083980;28;20483;-81
2022/04/21 06:03:31;;;;;;;0.73;0.30;;;10.10;1.00;;;;;;5091740;28;20417;-80
2022/04/21 06:06:02;;;;;;;0.60;0.10;;;10.10;99.90;;;;;;5094591;28;20429;-82
2022/04/21 06:08:43;;;;;;;0.60;0.10;;;10.10;1.00;;;;;;5086286;28;20450;-81
2022/04/21 06:11:17;;;;;;;0.60;0.10;;;;;;;;;;5083728;28;20457;-82
2022/04/21 06:13:53;;;;;;;0.60;0.10;;;10.30;99.90;;;;;;5084191;28;20449;-81
2022/04/21 06:16:22;;;;;;;0.60;0.20;;;10.40;99.90;;;;;;5079643;28;20433;-81
2022/04/21 06:18:55;;;;;;;0.60;0.10;;;10.40;99.90;;;;;;5080811;28;21046;-82
2022/04/21 06:21:26;;;;;;;0.60;0.20;;;10.40;99.90;;;;;;5081857;28;20448;-81
2022/04/21 06:24:05;;;;;;;0.60;0.10;;;10.40;99.90;;;;;;5080456;28;20480;-81
2022/04/21 06:26:42;;;;;;;0.60;0.10;;;10.50;99.90;;;;;;5080419;28;20449;-82
2022/04/21 06:29:13;;;;;;;4.73;0.33;;;10.50;99.90;;;;;;5078350;28;20434;-81
2022/04/21 06:31:48;;;;;;;0.60;0.10;;;10.60;99.90;;;;;;5078134;28;20500;-80
2022/04/21 06:34:22;;;;;;;0.60;0.20;;;10.60;99.90;;;;;;5079769;28;20452;-81
2022/04/21 06:36:53;;;;;;;0.60;0.20;;;10.60;99.90;;;;;;5077622;28;21036;-82
2022/04/21 06:39:24;;;;;;;0.60;0.10;;;10.60;99.90;;;;;;5077651;28;20492;-82
2022/04/21 06:41:58;;;;;;;1.57;0.77;;;10.60;99.90;;;;;;5079113;28;20470;-82
2022/04/21 06:50:14;;;;;;;0.60;0.10;;;10.80;99.90;;;;;;5089120;28;20469;-79
2022/04/21 06:52:43;;;;;;;0.80;0.30;;;;;;;;;;5083184;28;20480;-82
2022/04/21 06:55:11;;;;;;;1.60;1.50;;;;;;;;;;5081768;28;20445;-82
2022/04/21 06:57:39;;;;;;;0.60;0.10;;;11.10;99.90;;;;;;5074259;28;20553;-83
2022/04/21 07:00:09;;;;;;;0.60;0.33;;;;;;;;;;5083064;28;20446;-83
2022/04/21 07:02:38;;;;;;;0.60;0.30;;;11.10;99.90;;;;;;5075613;28;20501;-84
2022/04/21 07:05:09;;;;;;;0.60;0.33;;;11.10;99.90;;;;;;5086093;28;20441;-82
2022/04/21 07:07:39;;;;;;;0.60;0.10;;;11.00;99.90;;;;;;5087302;28;21470;-83
2022/04/21 07:10:17;;;;;;;0.70;0.33;;;11.00;99.90;;;;;;5082792;28;20440;-84
2022/04/21 07:12:46;;;;;;;0.60;0.17;;;;;;;;;;5081396;28;20469;-80
2022/04/21 07:15:15;;;;;;;1.10;0.83;;;11.10;99.90;;;;;;5083627;28;20471;-81
2022/04/21 07:17:44;;;;;;;0.90;0.40;;;11.00;99.90;;;;;;5079895;28;21006;-82
2022/04/21 07:20:13;;;;;;;1.07;0.70;;;11.00;99.90;;;;;;5080320;28;20446;-81
2022/04/21 07:22:41;;;;;;;1.37;0.87;;;11.10;99.90;;;;;;5081545;28;20477;-82
2022/04/21 07:25:10;;;;;;;0.60;0.10;;;11.00;99.90;;;;;;5079144;28;21060;-82
2022/04/21 07:27:39;;;;;;;1.23;1.13;;;;;;;;;;5078353;28;20497;-78
2022/04/21 07:30:09;;;;;;;1.03;0.97;;;11.00;99.90;;;;;;5097342;28;20449;-80
2022/04/21 07:32:39;;;;;;;0.70;0.40;;;;;;;;;;5088585;28;20449;-82
2022/04/21 07:35:08;;;;;;;1.57;0.40;;;10.90;99.90;;;;;;5079901;28;20459;-80
2022/04/21 07:37:37;;;;;;;0.60;0.10;;;10.90;99.90;;;;;;5079218;28;20493;-81
2022/04/21 07:40:07;;;;;;;0.60;0.10;;;10.90;99.90;;;;;;5082272;28;20449;-81
2022/04/21 07:42:35;;;;;;;0.60;0.10;;;11.10;99.90;;;;;;5088261;28;20437;-81
2022/04/21 07:45:05;;;;;;;0.60;0.10;;;11.10;99.90;;;;;;5089615;28;20449;-82
2022/04/21 07:47:33;;;;;;;0.60;0.20;;;11.20;99.90;;;;;;5087059;28;20528;-83
2022/04/21 07:50:02;;;;;;;0.60;0.10;;;;;;;;;;5082480;28;20754;-80
2022/04/21 07:55:20;;;;;;;0.60;0.20;;;11.20;99.90;;;;;;5092422;28;20464;-79
2022/04/21 07:57:48;;;;;;;1.17;0.40;;;11.30;99.90;;;;;;5095622;28;20503;-78
2022/04/21 08:00:18;;;;;;;0.60;0.10;;;11.40;99.90;;;;;;5097825;28;20457;-79
2022/04/21 08:02:47;;;;;;;0.60;0.30;;;11.50;99.90;;;;;;5095445;28;20472;-79
2022/04/21 08:05:20;;;;;;;0.60;0.40;;;11.60;99.90;;;;;;5085238;28;20425;-82
2022/04/21 08:07:49;;;;;;;0.60;0.10;;;11.70;99.90;;;;;;5082229;28;20516;-82
2022/04/21 08:10:20;;;;;;;0.60;0.20;;;11.70;99.90;;;;;;5083587;28;20483;-83
2022/04/21 08:12:49;;;;;;;0.80;0.60;;;;;;;;;;5078040;28;20453;-78
2022/04/21 08:15:23;;;;;;;0.60;0.30;;;11.70;99.90;;;;;;5082601;28;20441;-81
2022/04/21 08:17:52;;;;;;;0.60;0.30;;;11.70;99.90;;;;;;5063955;28;20509;-82
2022/04/21 08:20:23;;;;;;;0.60;0.10;;;11.50;99.90;;;;;;5073759;28;20474;-80
2022/04/21 08:22:51;;;;;;;0.60;0.10;;;;;;;;;;5077859;28;20452;-79
2022/04/21 08:34:16;;;;;;;0.60;0.20;;;;;;;;;;5086914;28;20503;-80
2022/04/21 08:36:52;;;;;;;0.60;0.20;;;;;;;;;;5088302;28;20465;-82
2022/04/21 08:39:21;;;;;;;1.90;1.70;;;11.60;99.90;;;;;;5085997;28;20485;-80
2022/04/21 08:41:52;;;;;;;0.60;0.33;;;11.60;99.90;;;;;;5081516;28;20446;-83
2022/04/21 08:44:21;;;;;;;0.60;0.20;;;11.70;99.90;;;;;;5085990;28;20511;-82
2022/04/21 08:46:50;;;;;;;1.10;0.73;;;;;;;;;;5100698;28;20460;-82
2022/04/21 08:49:22;;;;;;;0.60;0.10;;;12.00;99.90;;;;;;5096335;28;20449;-82
2022/04/21 08:51:51;;;;;;;0.60;0.13;;;12.10;99.90;;;;;;5084144;28;20501;-82
2022/04/21 08:54:20;;;;;;;0.60;0.20;;;13.60;99.90;;;;;;5084841;28;20448;-80
2022/04/21 08:56:49;;;;;;;0.60;0.10;;;;;;;;;;5082398;28;20466;-81
2022/04/21 08:59:19;;;;;;;0.60;0.20;;;;;;;;;;5084004;28;20487;-81
2022/04/21 09:01:47;;;;;;;0.60;0.20;;;;;;;;;;5085751;28;20430;-82
2022/04/21 09:04:15;;;;;;;0.80;0.50;;;13.00;99.90;;;;;;5086687;28;20452;-82
2022/04/21 09:06:46;;;;;;;0.60;0.10;;;13.20;99.90;;;;;;5087546;28;20458;-81
2022/04/21 09:09:19;;;;;;;1.37;0.83;;;;;;;;;;5070886;28;21048;-83
2022/04/21 09:11:51;;;;;;;0.60;0.40;;;13.50;99.90;;;;;;5084057;28;20485;-81
2022/04/21 09:14:20;;;;;;;1.83;0.90;;;13.50;99.90;;;;;;5083959;28;20451;-82
2022/04/21 09:16:49;;;;;;;0.60;0.20;;;13.40;99.90;;;;;;5083301;28;20650;-81
2022/04/21 09:19:17;;;;;;;0.70;0.20;;;13.40;99.90;;;;;;5083258;28;20487;-83
2022/04/21 09:21:46;;;;;;;0.60;0.10;;;;;;;;;;5082478;28;20530;-82
2022/04/21 09:24:23;;;;;;;1.40;1.00;;;13.40;99.90;;;;;;5085316;28;20453;-81
2022/04/21 09:26:53;;;;;;;0.83;0.67;;;13.50;99.90;;;;;;5080804;28;20485;-82
2022/04/21 09:29:30;;;;;;;0.60;0.10;;;13.40;99.90;;;;;;5083188;28;20502;-81
2022/04/21 09:31:59;;;;;;;0.70;0.30;;;;;;;;;;5090796;28;20478;-83
2022/04/21 09:34:35;;;;;;;0.60;0.10;;;13.30;99.90;;;;;;5080915;28;20465;-82
2022/04/21 09:37:05;;;;;;;1.00;0.20;;;13.50;99.90;;;;;;5077400;28;20575;-82
2022/04/21 09:39:39;;;;;;;0.60;0.10;;;13.50;99.90;;;;;;5093462;28;20550;-81
2022/04/21 09:42:08;;;;;;;1.47;0.30;;;13.60;99.90;;;;;;5087531;28;20508;-81
2022/04/21 09:47:30;;;;;;;0.60;0.10;;;14.10;99.90;;;;;;5091935;28;20580;-81
2022/04/21 09:50:10;;;;;;;1.20;0.93;;;14.10;99.90;;;;;;5081480;28;20990;-79
2022/04/21 09:52:48;;;;;;;0.60;0.30;;;14.20;99.90;;;;;;5097149;28;20435;-79
2022/04/21 09:55:30;;;;;;;0.60;0.10;;;14.40;99.90;;;;;;5079370;28;20819;-81
2022/04/21 09:58:06;;;;;;;0.60;0.13;;;14.50;99.90;;;;;;5067800;28;20464;-80
2022/04/21 10:00:36;;;;;;;1.50;1.40;;;14.90;99.90;;;;;;5084681;28;20487;-80
2022/04/21 10:03:05;;;;;;;0.60;0.20;;;;;;;;;;5073676;28;20436;-80
2022/04/21 10:05:35;;;;;;;0.77;0.60;;;15.10;99.90;;;;;;5057299;28;20433;-79
2022/04/21 10:08:05;;;;;;;0.77;0.40;;;15.20;99.90;;;;;;5085916;28;20461;-80
2022/04/21 10:10:35;;;;;;;0.60;0.20;;;;;;;;;;5092610;28;20448;-80
2022/04/21 10:13:05;;;;;;;0.93;0.63;;;15.20;99.90;;;;;;5098514;28;20433;-81
2022/04/21 10:15:35;;;;;;;0.60;0.10;;;15.20;99.90;;;;;;5099192;28;20517;-80
2022/04/21 10:18:06;;;;;;;0.60;0.10;;;15.20;99.90;;;;;;5093309;28;20457;-79
2022/04/21 10:20:34;;;;;;;0.83;0.57;;;15.40;99.90;;;;;;5100835;28;21027;-81
2022/04/21 10:23:04;;;;;;;1.73;1.03;;;15.60;99.90;;;;;;5085772;28;20539;-81
2022/04/21 10:25:37;;;;;;;12.50;4.80;;;;;;;;;;5077699;28;20448;-79
2022/04/21 10:28:38;;;;;;;0.60;0.30;;;15.20;99.90;;;;;;5076200;28;20490;-79
2022/04/21 10:31:35;;;;;;;0.60;0.10;;;15.20;99.90;;;;;;5066586;28;20479;-82
2022/04/21 10:34:05;;;;;;;0.60;0.10;;;15.20;99.90;;;;;;5089019;28;20446;-82
2022/04/21 10:36:42;;;;;;;0.60;0.20;;;15.50;99.90;;;;;;5098161;28;20436;-81
2022/04/21 10:39:24;;;;;;;0.60;0.10;;;15.50;99.90;;;;;;5099171;28;20725;-80
2022/04/21 10:42:18;;;;;;;0.60;0.10;;;15.50;99.90;;;;;;5099377;28;20453;-81
2022/04/21 10:44:50;;;;;;;0.60;0.20;;;15.60;99.90;;;;;;5090686;28;20442;-80
2022/04/21 10:47:46;;;;;;;0.60;0.10;;;15.60;99.90;;;;;;5092645;28;20466;-82
2022/04/21 10:50:16;;;;;;;0.60;0.20;;;15.60;99.90;;;;;;5094068;28;20456;-81
2022/04/21 10:58:51;;;;;;;0.60;0.10;;;15.90;99.90;;;;;;5077873;28;20493;-79
2022/04/21 11:01:31;;;;;;;2.00;1.90;;;15.90;99.90;;;;;;5074446;28;20473;-79
2022/04/21 11:04:12;;;;;;;0.60;0.20;;;16.00;99.90;;;;;;5082485;28;20446;-80
2022/04/21 11:06:42;;;;;;;0.60;0.10;;;;;;;;;;5078943;28;20444;-79
2022/04/21 11:09:34;;;;;;;0.60;0.10;;;16.10;99.90;;;;;;5078700;28;20533;-80
2022/04/21 11:12:43;;;;;;;0.60;0.20;;;16.20;99.90;;;;;;5099953;28;20429;-79
2022/04/21 11:15:31;;;;;;;0.60;0.33;;;16.40;99.90;;;;;;5084291;28;20898;-80
2022/04/21 11:18:01;;;;;;;0.60;0.10;;;16.50;99.90;;;;;;5069624;28;21006;-79
2022/04/21 11:20:31;;;;;;;0.60;0.20;;;16.60;99.90;;;;;;5081510;28;20486;-79
2022/04/21 11:22:59;;;;;;;0.60;0.20;;;16.50;99.90;;;;;;5075089;28;20453;-80
2022/04/21 11:25:32;;;;;;;0.60;0.10;;;16.30;99.90;;;;;;5084085;28;20478;-80
2022/04/21 11:28:01;;;;;;;0.60;0.20;;;16.20;99.90;;;;;;5081594;28;20547;-80
2022/04/21 11:30:31;;;;;;;0.70;0.57;;;16.10;99.90;;;;;;5082227;28;20496;-79
2022/04/21 11:33:01;;;;;;;0.60;0.10;;;16.20;99.90;;;;;;5081883;28;20450;-80
2022/04/21 11:35:34;;;;;;;0.60;0.10;;;16.10;99.90;;;;;;5089470;28;20445;-79
2022/04/21 11:38:02;;;;;;;0.80;0.43;;;16.00;99.90;;;;;;5089133;28;20585;-79
2022/04/21 11:40:33;;;;;;;0.60;0.10;;;15.90;99.90;;;;;;5100550;28;20469;-79
2022/04/21 11:43:03;;;;;;;1.40;0.97;;;15.90;99.90;;;;;;5095226;28;20448;-79
2022/04/21 11:45:36;;;;;;;0.90;0.67;;;16.10;99.90;;;;;;5084480;28;20433;-80
2022/04/21 11:48:12;;;;;;;2.93;1.20;;;;;;;;;;5077575;28;20478;-80
2022/04/21 11:50:44;;;;;;;0.60;0.10;;;16.20;99.90;;;;;;5077802;28;20464;-80
2022/04/21 11:53:14;;;;;;;0.60;0.20;;;16.40;99.90;;;;;;5084928;28;20449;-80
2022/04/21 11:55:43;;;;;;;0.60;0.20;;;16.60;99.90;;;;;;5092419;28;20977;-80
2022/04/21 11:58:12;;;;;;;0.60;0.10;;;16.60;99.90;;;;;;5080928;28;20480;-80
2022/04/21 12:06:32;;;;;;;0.60;0.20;;;;;;;;;;5078965;28;20475;-81
2022/04/21 12:09:01;;;;;;;0.60;0.20;;;17.40;99.90;;;;;;5071272;28;20963;-78
2022/04/21 12:11:29;;;;;;;1.43;0.50;;;17.50;99.90;;;;;;5077736;28;20489;-80
2022/04/21 12:13:58;;;;;;;0.60;0.10;;;17.30;99.90;;;;;;5083946;28;21052;-79
2022/04/21 12:16:45;;;;;;;2.93;2.63;;;16.90;99.90;;;;;;5078116;28;21605;-78
2022/04/21 12:19:28;;;;;;;0.70;0.30;;;16.70;99.90;;;;;;5079892;28;20446;-79
2022/04/21 12:22:01;;;;;;;0.83;0.83;;;16.70;99.90;;;;;;5083824;28;20751;-80
2022/04/21 12:24:37;;;;;;;1.80;1.03;;;16.70;99.90;;;;;;5077329;28;20475;-78
2022/04/21 12:27:11;;;;;;;0.83;0.50;;;16.50;99.90;;;;;;5083268;28;20469;-78
2022/04/21 12:29:47;;;;;;;0.60;0.10;;;16.60;99.90;;;;;;5080921;28;20955;-77
2022/04/21 12:32:20;;;;;;;0.60;0.30;;;16.60;99.90;;;;;;5079477;28;20427;-78
2022/04/21 12:34:48;;;;;;;0.60;0.30;;;17.00;99.90;;;;;;5078277;28;20463;-79
2022/04/21 12:37:16;;;;;;;0.60;0.10;;;17.20;99.90;;;;;;5076429;28;20891;-78
2022/04/21 12:39:45;;;;;;;0.60;0.10;;;17.30;99.90;;;;;;5080226;28;20438;-78
2022/04/21 12:42:33;;;;;;;0.60;0.10;;;17.70;99.90;;;;;;5086211;28;20953;-78
2022/04/21 12:45:01;;;;;;;1.27;0.47;;;17.70;99.90;;;;;;5090750;28;20479;-77
2022/04/21 12:47:31;;;;;;;0.60;0.10;;;17.70;99.90;;;;;;5094777;28;20529;-78
2022/04/21 12:50:01;;;;;;;0.60;0.20;;;17.70;99.90;;;;;;5092426;28;20433;-78
2022/04/21 12:52:34;;;;;;;0.63;0.20;;;17.70;99.90;;;;;;5080845;28;20496;-77
2022/04/21 12:55:05;;;;;;;0.60;0.20;;;17.70;99.90;;;;;;5099702;28;20433;-77
2022/04/21 12:57:44;;;;;;;1.03;0.50;;;;;;;;;;5085160;28;20454;-77
2022/04/21 13:00:13;;;;;;;0.60;0.20;;;;;;;;;;5087878;28;20909;-78
2022/04/21 13:02:43;;;;;;;1.00;0.67;;;17.20;99.90;;;;;;5082282;28;20480;-77
2022/04/21 13:05:11;;;;;;;0.97;0.40;;;17.20;99.90;;;;;;5084523;28;20524;-78
2022/04/21 13:07:39;;;;;;;0.60;0.17;;;17.20;99.90;;;;;;5088494;28;21083;-78
2022/04/21 13:10:07;;;;;;;0.80;0.37;;;17.20;99.90;;;;;;5080101;28;20455;-77
2022/04/21 13:12:35;;;;;;;0.60;0.20;;;17.50;99.90;;;;;;5087355;28;20442;-78
2022/04/21 13:15:05;;;;;;;0.60;0.27;;;17.70;99.90;;;;;;5096431;28;20432;-77
2022/04/21 13:17:33;;;;;;;0.60;0.20;;;17.90;99.90;;;;;;5098276;28;20486;-77
2022/04/21 13:20:02;;;;;;;0.60;0.10;;;18.20;99.90;;;;;;5090417;28;20444;-80
2022/04/21 13:22:29;;;;;;;0.70;0.30;;;18.40;99.90;;;;;;5095852;28;20918;-78
2022/04/21 13:24:57;;;;;;;0.60;0.20;;;18.50;99.90;;;;;;5096376;28;20448;-79
2022/04/21 13:27:26;;;;;;;0.60;0.10;;;18.00;99.90;;;;;;5094451;28;20477;-77
2022/04/21 13:29:54;;;;;;;0.60;0.20;;;17.80;99.90;;;;;;5094510;28;20538;-76
2022/04/21 13:35:13;;;;;;;1.53;0.40;;;17.90;99.90;;;;;;5087631;28;20462;-75
2022/04/21 13:37:41;;;;;;;0.70;0.40;;;17.70;99.90;;;;;;5074330;28;20524;-76
2022/04/21 13:40:10;;;;;;;0.60;0.20;;;17.70;99.90;;;;;;5074567;28;20448;-79
2022/04/21 13:42:38;;;;;;;7.90;1.30;;;17.70;99.90;;;;;;5078107;28;20461;-77
2022/04/21 13:45:06;;;;;;;0.60;0.20;;;17.70;99.90;;;;;;5077169;28;20827;-78
2022/04/21 13:47:56;;;;;;;0.60;0.10;;;18.00;99.90;;;;;;5075087;28;20463;-78
2022/04/21 13:50:28;;;;;;;0.70;0.27;;;18.20;99.90;;;;;;5074408;28;20439;-77
2022/04/21 13:52:56;;;;;;;0.60;0.20;;;18.60;99.90;;;;;;5075944;28;20506;-79
2022/04/21 13:55:25;;;;;;;0.70;0.40;;;18.50;99.90;;;;;;5079968;28;20514;-79
2022/04/21 13:57:53;;;;;;;0.60;0.20;;;;;;;;;;5078833;28;21007;-79
2022/04/21 14:00:24;;;;;;;0.80;0.63;;;18.50;99.90;;;;;;5077612;28;20467;-77
2022/04/21 14:02:52;;;;;;;0.60;0.10;;;18.70;99.90;;;;;;5077054;28;20417;-77
2022/04/21 14:05:23;;;;;;;0.60;0.30;;;18.80;99.90;;;;;;5076999;28;20446;-79
2022/04/21 14:07:52;;;;;;;0.60;0.10;;;18.70;99.90;;;;;;5077516;28;20465;-77
2022/04/21 14:10:23;;;;;;;0.70;0.30;;;18.70;99.90;;;;;;5075417;28;20459;-78
2022/04/21 14:12:52;;;;;;;0.60;0.20;;;18.50;99.90;;;;;;5072941;28;20577;-76
2022/04/21 14:15:20;;;;;;;0.60;0.20;;;18.30;99.90;;;;;;5074016;28;20447;-76
2022/04/21 14:17:51;;;;;;;0.60;0.20;;;;;;;;;;5075511;28;20483;-77
2022/04/21 14:20:19;;;;;;;0.60;0.10;;;18.30;99.90;;;;;;5079283;28;20547;-77